createdAt,value
2023-02-02T00:03:15.647Z,2.37
2023-02-02T00:08:19.192Z,3.27
2023-02-02T00:13:20.985Z,2.97
2023-02-02T00:18:22.924Z,3.17
2023-02-02T00:23:24.700Z,2.53
2023-02-02T00:28:26.498Z,3.53
2023-02-02T00:33:28.534Z,2.80
2023-02-02T00:38:31.056Z,3.07
2023-02-02T00:43:34.165Z,3.00
2023-02-02T00:48:36.000Z,2.93
2023-02-02T00:53:37.907Z,2.37
2023-02-02T00:58:39.919Z,3.30
2023-02-02T01:03:42.289Z,2.90
2023-02-02T01:08:44.182Z,2.53
2023-02-02T01:13:46.077Z,2.97
2023-02-02T01:18:48.741Z,2.37
2023-02-02T01:23:50.827Z,3.00
2023-02-02T01:28:52.646Z,2.67
2023-02-02T01:33:55.296Z,2.47
2023-02-02T01:38:57.493Z,3.03
2023-02-02T01:44:05.633Z,4.47
2023-02-02T01:49:14.510Z,2.30
2023-02-02T01:54:22.996Z,3.20
2023-02-02T01:59:27.084Z,2.97
2023-02-02T02:04:31.151Z,3.93
2023-02-02T02:09:34.286Z,2.50
2023-02-02T02:14:54.713Z,2.80
2023-02-02T02:20:38.264Z,3.10
2023-02-02T02:26:35.331Z,2.60
2023-02-02T02:32:01.367Z,2.70
2023-02-02T02:37:22.761Z,2.70
2023-02-02T02:42:28.783Z,2.70
2023-02-02T02:47:32.611Z,2.80
2023-02-02T02:52:36.037Z,2.63
2023-02-02T02:57:55.452Z,2.30
2023-02-02T03:03:26.580Z,2.33
2023-02-02T03:08:57.728Z,2.47
2023-02-02T03:14:02.010Z,2.70
2023-02-02T03:19:04.986Z,2.67
2023-02-02T03:24:07.228Z,2.70
2023-02-02T03:29:09.259Z,2.70
2023-02-02T03:34:11.256Z,2.90
2023-02-02T03:39:13.213Z,2.67
2023-02-02T03:44:15.103Z,2.50
2023-02-02T03:49:17.214Z,1.93
2023-02-02T03:54:19.130Z,2.43
2023-02-02T03:59:21.045Z,2.77
2023-02-02T04:04:22.933Z,2.90
2023-02-02T04:09:25.500Z,2.30
2023-02-02T04:14:27.288Z,3.23
2023-02-02T04:19:29.255Z,2.53
2023-02-02T04:24:31.300Z,1.93
2023-02-02T04:29:33.142Z,2.50
2023-02-02T04:34:34.978Z,2.10
2023-02-02T04:39:37.173Z,2.73
2023-02-02T04:44:39.855Z,3.70
2023-02-02T04:49:41.777Z,2.17
2023-02-02T04:54:43.747Z,2.73
2023-02-02T04:59:45.523Z,2.40
2023-02-02T05:04:47.591Z,2.03
2023-02-02T05:09:49.709Z,1.90
2023-02-02T05:14:51.860Z,3.30
2023-02-02T05:19:53.804Z,2.70
2023-02-02T05:24:55.655Z,1.73
2023-02-02T05:29:57.556Z,1.90
2023-02-02T05:34:59.541Z,2.30
2023-02-02T05:40:01.754Z,2.30
2023-02-02T05:45:04.137Z,2.07
2023-02-02T05:50:06.551Z,2.63
2023-02-02T05:55:09.897Z,1.93
2023-02-02T06:00:12.224Z,2.13
2023-02-02T06:05:14.118Z,2.23
2023-02-02T06:10:16.229Z,2.67
2023-02-02T06:15:18.335Z,2.23
2023-02-02T06:20:22.261Z,2.37
2023-02-02T06:25:24.766Z,2.23
2023-02-02T06:30:28.272Z,2.50
2023-02-02T06:35:30.088Z,1.90
2023-02-02T06:40:31.917Z,2.97
2023-02-02T06:45:33.914Z,2.10
2023-02-02T06:50:35.733Z,1.90
2023-02-02T06:55:37.688Z,2.87
2023-02-02T07:00:39.694Z,2.60
2023-02-02T07:05:41.680Z,2.60
2023-02-02T07:11:15.267Z,2.57
2023-02-02T07:16:09.403Z,2.13
2023-02-02T07:21:22.824Z,3.10
2023-02-02T07:26:24.850Z,2.87
2023-02-02T07:31:27.586Z,1.93
2023-02-02T07:36:29.667Z,2.53
2023-02-02T07:41:33.607Z,2.37
2023-02-02T07:46:35.602Z,2.90
2023-02-02T07:51:40.616Z,1.73
2023-02-02T07:56:44.338Z,2.27
2023-02-02T08:01:46.503Z,2.37
2023-02-02T08:06:48.695Z,2.67
2023-02-02T08:11:50.549Z,2.27
2023-02-02T08:16:52.388Z,2.07
2023-02-02T08:21:54.224Z,1.90
2023-02-02T08:26:56.096Z,1.97
2023-02-02T08:31:58.749Z,1.57
2023-02-02T08:37:00.800Z,2.20
2023-02-02T08:42:02.772Z,2.27
2023-02-02T08:47:04.684Z,1.67
2023-02-02T08:52:06.730Z,2.07
2023-02-02T08:57:08.658Z,2.50
2023-02-02T09:02:13.880Z,3.00
2023-02-02T09:07:15.832Z,2.27
2023-02-02T09:12:17.767Z,2.57
2023-02-02T09:17:19.755Z,2.20
2023-02-02T09:22:21.942Z,2.10
2023-02-02T09:27:23.764Z,3.17
2023-02-02T09:32:25.531Z,2.07
2023-02-02T09:37:27.660Z,2.00
2023-02-02T09:42:52.633Z,1.67
2023-02-02T09:48:01.638Z,2.17
2023-02-02T09:53:28.240Z,2.10
2023-02-02T09:58:51.153Z,2.23
2023-02-02T10:04:15.081Z,1.67
2023-02-02T10:09:26.425Z,1.80
2023-02-02T10:14:41.855Z,2.00
2023-02-02T10:19:46.695Z,1.70
2023-02-02T10:24:48.551Z,2.13
2023-02-02T10:29:59.371Z,2.00
2023-02-02T10:35:20.116Z,1.90
2023-02-02T10:40:40.492Z,1.93
2023-02-02T10:45:43.932Z,2.53
2023-02-02T10:50:50.701Z,2.07
2023-02-02T10:56:22.104Z,2.10
2023-02-02T11:01:24.089Z,1.70
2023-02-02T11:06:44.486Z,1.77
2023-02-02T11:11:51.505Z,2.43
2023-02-02T11:17:05.747Z,1.80
2023-02-02T11:22:25.597Z,2.60
2023-02-02T11:27:32.475Z,1.90
2023-02-02T11:32:34.751Z,2.30
2023-02-02T11:38:13.998Z,1.90
2023-02-02T11:43:25.758Z,1.90
2023-02-02T11:48:35.782Z,2.00
2023-02-02T11:53:49.047Z,1.70
2023-02-02T11:58:53.177Z,1.67
2023-02-02T12:04:01.495Z,1.53
2023-02-02T12:09:12.802Z,1.80
2023-02-02T12:14:51.074Z,2.57
2023-02-02T12:20:11.097Z,2.37
2023-02-02T12:25:42.127Z,2.07
2023-02-02T12:31:22.590Z,1.83
2023-02-02T12:36:43.328Z,1.67
2023-02-02T12:42:22.924Z,1.90
2023-02-02T12:47:42.329Z,2.23
2023-02-02T12:53:07.100Z,2.20
2023-02-02T12:58:26.621Z,2.13
2023-02-02T13:03:50.078Z,2.20
2023-02-02T13:09:13.937Z,2.17
2023-02-02T13:14:20.360Z,2.13
2023-02-02T13:19:28.190Z,1.77
2023-02-02T13:24:33.132Z,1.90
2023-02-02T13:30:00.069Z,1.73
2023-02-02T13:35:13.490Z,1.70
2023-02-02T13:40:18.311Z,1.63
2023-02-02T13:45:45.144Z,2.17
2023-02-02T13:50:56.077Z,1.83
2023-02-02T13:56:21.228Z,2.33
2023-02-02T14:01:24.976Z,1.80
2023-02-02T14:06:28.350Z,1.80
2023-02-02T14:11:46.670Z,1.73
2023-02-02T14:16:51.351Z,2.00
2023-02-02T14:22:08.820Z,1.40
2023-02-02T14:27:10.888Z,2.00
2023-02-02T14:32:25.473Z,1.70
2023-02-02T14:37:31.543Z,1.77
2023-02-02T14:43:20.142Z,2.03
2023-02-02T14:48:25.201Z,2.00
2023-02-02T14:53:47.969Z,2.63
2023-02-02T14:59:00.185Z,2.17
2023-02-02T15:04:24.984Z,2.40
2023-02-02T15:09:36.532Z,1.97
2023-02-02T15:14:44.688Z,3.57
2023-02-02T15:19:52.056Z,2.37
2023-02-02T15:24:54.686Z,2.53
2023-02-02T15:30:02.757Z,2.43
2023-02-02T15:35:11.065Z,3.03
2023-02-02T15:40:16.332Z,2.57
2023-02-02T15:45:53.826Z,2.37
2023-02-02T15:50:59.507Z,2.43
2023-02-02T15:56:23.039Z,2.70
2023-02-02T16:01:27.247Z,2.90
2023-02-02T16:06:30.125Z,2.23
2023-02-02T16:11:32.122Z,2.53
2023-02-02T16:16:37.426Z,2.37
2023-02-02T16:21:45.915Z,2.50
2023-02-02T16:26:48.270Z,2.33
2023-02-02T16:31:50.985Z,2.40
2023-02-02T16:37:27.502Z,2.80
2023-02-02T16:42:31.569Z,3.67
2023-02-02T16:47:35.817Z,2.23
2023-02-02T16:52:58.235Z,2.73
2023-02-02T16:58:01.942Z,2.80
2023-02-02T17:03:08.890Z,2.67
2023-02-02T17:08:11.013Z,3.47
2023-02-02T17:13:31.321Z,3.80
2023-02-02T17:18:33.818Z,3.30
2023-02-02T17:23:36.584Z,3.10
2023-02-02T17:28:40.523Z,2.63
2023-02-02T17:33:45.813Z,6.00
2023-02-02T17:38:47.889Z,3.57
2023-02-02T17:43:49.926Z,3.20
2023-02-02T17:48:51.824Z,3.60
2023-02-02T17:53:55.421Z,3.57
2023-02-02T17:58:57.189Z,5.03
2023-02-02T18:03:59.339Z,3.43
2023-02-02T18:09:02.563Z,3.93
2023-02-02T18:14:04.988Z,4.00
2023-02-02T18:19:06.957Z,4.03
2023-02-02T18:24:15.203Z,4.83
2023-02-02T18:29:17.378Z,4.00
2023-02-02T18:34:21.628Z,3.30
2023-02-02T18:39:23.597Z,3.90
2023-02-02T18:44:27.855Z,5.83
2023-02-02T18:49:29.681Z,3.77
2023-02-02T18:54:33.869Z,3.80
2023-02-02T18:59:36.044Z,3.90
2023-02-02T19:04:38.012Z,3.60
2023-02-02T19:09:40.153Z,3.93
2023-02-02T19:14:43.209Z,4.47
2023-02-02T19:19:50.265Z,5.10
2023-02-02T19:24:52.824Z,4.43
2023-02-02T19:29:59.812Z,3.53
2023-02-02T19:35:04.071Z,3.93
2023-02-02T19:40:09.082Z,4.20
2023-02-02T19:45:21.265Z,4.87
2023-02-02T19:50:26.197Z,4.73
2023-02-02T19:55:34.810Z,3.73
2023-02-02T20:00:38.792Z,4.70
2023-02-02T20:05:44.677Z,6.00
2023-02-02T20:10:47.127Z,4.10
2023-02-02T20:15:51.977Z,3.70
2023-02-02T20:20:55.921Z,3.60
2023-02-02T20:25:59.115Z,3.60
2023-02-02T20:31:03.552Z,3.40
2023-02-02T20:36:26.545Z,3.33
2023-02-02T20:41:28.572Z,3.50
2023-02-02T20:46:30.398Z,2.70
2023-02-02T20:51:32.446Z,3.63
2023-02-02T20:56:34.435Z,3.47
2023-02-02T21:01:36.530Z,3.60
2023-02-02T21:06:42.754Z,2.43
2023-02-02T21:11:44.674Z,2.67
2023-02-02T21:16:46.564Z,2.30
2023-02-02T21:21:50.890Z,3.70
2023-02-02T21:26:53.899Z,2.77
2023-02-02T21:31:59.291Z,3.03
2023-02-02T21:37:01.440Z,3.47
2023-02-02T21:42:11.717Z,2.40
2023-02-02T21:47:29.989Z,2.90
2023-02-02T21:52:33.873Z,2.83
2023-02-02T21:57:37.029Z,2.90
2023-02-02T22:02:44.989Z,3.37
2023-02-02T22:07:50.545Z,2.47
2023-02-02T22:12:52.353Z,2.73
2023-02-02T22:17:54.143Z,2.70
2023-02-02T22:22:56.127Z,2.47
2023-02-02T22:28:01.377Z,2.77
2023-02-02T22:33:05.654Z,2.70
2023-02-02T22:38:08.691Z,3.13
2023-02-02T22:43:13.299Z,2.97
2023-02-02T22:48:16.085Z,2.30
2023-02-02T22:53:21.174Z,3.47
2023-02-02T22:58:24.744Z,2.73
2023-02-02T23:03:27.014Z,2.30
2023-02-02T23:08:29.406Z,3.03
2023-02-02T23:13:31.386Z,2.43
2023-02-02T23:18:33.345Z,2.63
2023-02-02T23:23:35.114Z,3.13
2023-02-02T23:28:37.038Z,2.50
2023-02-02T23:33:38.890Z,2.87
2023-02-02T23:38:40.845Z,3.10
2023-02-02T23:43:42.827Z,2.83
2023-02-02T23:48:45.159Z,3.23
2023-02-02T23:53:47.209Z,3.27
2023-02-02T23:58:49.255Z,3.20
